Αρχική σελίδα
METAR-TAF:

METAR-TAF

Αεροδρόμια :

Georgetown, Νήσος Αναλήψεως

γεωγραφικό πλάτος: 07-58S, γεωγραφικό μήκος: 014-24W, υψόμετρο: 86 μ

METAR: λείπει

Χρόνος: 23:42 (23:42 UTC)

Πρόγνωση Καιρού

Η αναφορά έγινε 1 ώρα και 12 λεπτά πριν, στις 22:30 UTC
Η πρόγνωση ισχύει από τις 22 στις 00 UTC έως τις 22 στις 18 UTC
Άνεμος 13 kt από ΝA
Ορατότητα 10 χλμ και άνω
Λίγα νέφη σε ύψος 2200 πόδια
Πιθανότητα 30% :
Προσωρινά
από 22 στις 00 UTC έως τις 22 στις 12 UTC
Άνεμος 15 kt από ΝA με ριπές μέχρι 25 kt
Ορατότητα: 6000 μ
Διάσπαρτα νέφη σε ύψος 1400 πόδια
Ασθενείς όμβροι

TAF: FHAW 212230Z 2200/2218 14013KT 9999 FEW022 PROB30 TEMPO 2200/2212 14015G25KT 6000 -SHRA SCT014

Μετεωρολογικές αναφορές και προγνώσεις για περισσότερα από 4000 αεροδρόμια (δελτία METAR και TAF).

Οι διαθέσιμοι σταθμοί απεικονίζονται στο χάρτη με κίτρινες και κόκκινες κουκκίδες.

Μετακινήστε το ποντίκι πάνω από τις κουκκίδες για να δείτε το όνομα του σταθμού.

Στη συνέχεια, κάντε κλικ για να δείτε τις μετεωρολογικές αναφορές και τις προγνώσεις καιρού.

Για να αλλάξετε το χάρτη: κάντε κλικ στα πράσινα κουμπιά με τον μαύρο σταυρό για να ζουμάρετε, στο πράσινο κουμπί με την παύλα για να αφαιρέσετε το ζουμ ή στα πράσινα βέλη για να αντιπαραβάλλετε χάρτες.


METAR-TAF: